Time;durP1;ratioP1;P1;durP2;ratioP2;P2;SDS_P1;SDS_P2;PMS_P1;PMS_P2;Temp;Humidity;BMP_temperature;BMP_pressure;BME280_temperature;BME280_humidity;BME280_pressure;Samples;Min_cycle;Max_cycle;Signal;HPM_P1;HPM_P2
2023/01/20 00:01:04;;;;;;;28.40;19.80;;;;;;;-0.84;100.00;95928.35;108965;1274;22521;-81
2023/01/20 00:03:39;;;;;;;31.60;18.20;;;;;;;-0.85;100.00;95929.95;108913;1274;22527;-81
2023/01/20 00:06:10;;;;;;;32.60;21.80;;;;;;;-0.89;100.00;95920.76;108962;1273;24215;-81
2023/01/20 00:08:42;;;;;;;34.00;21.10;;;;;;;-0.93;100.00;95915.89;108970;1274;22562;-81
2023/01/20 00:11:14;;;;;;;32.20;20.40;;;;;;;-0.97;100.00;95917.92;108961;1274;22533;-81
2023/01/20 00:13:46;;;;;;;31.00;21.50;;;;;;;-1.01;100.00;95914.89;108944;1274;22575;-81
2023/01/20 00:16:17;;;;;;;37.50;22.60;;;;;;;-1.04;100.00;95910.54;108953;1268;22554;-81
2023/01/20 00:18:49;;;;;;;31.10;20.60;;;;;;;-1.06;100.00;95918.89;108999;1274;22565;-81
2023/01/20 00:21:20;;;;;;;33.40;21.90;;;;;;;-1.08;100.00;95924.91;108966;1273;22555;-81
2023/01/20 00:23:51;;;;;;;31.40;20.90;;;;;;;-1.09;100.00;95915.73;108981;1274;24420;-81
2023/01/20 00:26:24;;;;;;;34.50;24.30;;;;;;;-1.10;100.00;95904.95;108986;1274;23294;-80
2023/01/20 00:28:57;;;;;;;28.40;19.70;;;;;;;-1.11;100.00;95894.79;108934;1274;24239;-81
2023/01/20 00:31:30;;;;;;;31.40;21.70;;;;;;;-1.06;100.00;95891.56;108979;1267;22588;-81
2023/01/20 00:34:02;;;;;;;31.80;22.20;;;;;;;-1.05;100.00;95904.02;108841;1271;44095;-80
2023/01/20 00:36:36;;;;;;;34.20;21.80;;;;;;;-1.07;100.00;95913.09;109031;1260;22538;-80
2023/01/20 00:39:07;;;;;;;33.50;22.10;;;;;;;-1.10;100.00;95914.48;108939;1271;22535;-80
2023/01/20 00:41:38;;;;;;;29.90;19.60;;;;;;;-1.11;100.00;95918.73;108959;1274;24797;-80
2023/01/20 00:44:09;;;;;;;27.60;18.30;;;;;;;-1.09;100.00;95924.73;108925;1274;41938;-81
2023/01/20 00:46:42;;;;;;;28.70;17.70;;;;;;;-1.12;100.00;95926.79;108975;1274;22531;-81
2023/01/20 00:49:14;;;;;;;24.00;15.80;;;;;;;-1.13;100.00;95924.77;108962;1274;22638;-80
2023/01/20 00:51:45;;;;;;;26.50;16.40;;;;;;;-1.12;100.00;95932.70;109001;1271;22566;-80
2023/01/20 00:54:16;;;;;;;23.60;15.70;;;;;;;-1.12;100.00;95934.55;108929;1273;22680;-81
2023/01/20 00:56:47;;;;;;;24.30;15.10;;;;;;;-1.13;100.00;95931.55;108904;1275;22586;-80
2023/01/20 00:59:18;;;;;;;22.70;14.10;;;;;;;-1.12;100.00;95931.27;108872;1276;22632;-81
2023/01/20 01:01:49;;;;;;;23.00;14.90;;;;;;;-1.11;100.00;95935.05;108918;1266;22650;-81
2023/01/20 01:04:21;;;;;;;23.30;13.60;;;;;;;-1.11;100.00;95943.45;108910;1255;25530;-81
2023/01/20 01:06:55;;;;;;;26.80;15.60;;;;;;;-1.13;100.00;95948.07;108970;1267;24255;-81
2023/01/20 01:09:26;;;;;;;25.20;16.20;;;;;;;-1.14;100.00;95954.40;108959;1274;22545;-81
2023/01/20 01:11:59;;;;;;;24.40;16.40;;;;;;;-1.12;100.00;95957.62;108948;1274;23635;-81
2023/01/20 01:14:33;;;;;;;23.30;14.20;;;;;;;-1.11;100.00;95949.98;108868;1273;22555;-81
2023/01/20 01:17:05;;;;;;;23.30;14.30;;;;;;;-1.09;100.00;95950.70;108989;1259;22987;-81
2023/01/20 01:19:36;;;;;;;25.10;15.60;;;;;;;-1.12;100.00;95949.39;108980;1274;22533;-81
2023/01/20 01:22:07;;;;;;;26.90;16.80;;;;;;;-1.14;100.00;95948.47;109051;1273;22590;-81
2023/01/20 01:24:38;;;;;;;25.00;16.40;;;;;;;-1.14;100.00;95946.39;108971;1273;23826;-81
2023/01/20 01:27:09;;;;;;;28.70;17.80;;;;;;;-1.13;100.00;95945.90;108972;1267;22529;-81
2023/01/20 01:29:41;;;;;;;25.90;16.10;;;;;;;-1.13;100.00;95947.27;108976;1274;22543;-81
2023/01/20 01:32:14;;;;;;;28.10;17.50;;;;;;;-1.12;100.00;95940.10;109030;1274;22531;-81
2023/01/20 01:34:45;;;;;;;25.10;16.50;;;;;;;-1.11;100.00;95935.98;108978;1274;22581;-81
2023/01/20 01:37:16;;;;;;;25.90;17.30;;;;;;;-1.15;100.00;95939.45;109059;1267;22535;-81
2023/01/20 01:39:47;;;;;;;27.50;17.40;;;;;;;-1.21;100.00;95940.89;108933;1273;22631;-81
2023/01/20 01:42:23;;;;;;;26.90;16.60;;;;;;;-1.25;100.00;95940.48;108912;1266;22553;-81
2023/01/20 01:45:30;;;;;;;24.20;15.30;;;;;;;-1.28;100.00;95940.38;108919;1274;24206;-80
2023/01/20 01:48:06;;;;;;;25.20;15.00;;;;;;;-1.28;100.00;95948.38;108539;1278;22549;-80
2023/01/20 01:50:47;;;;;;;23.30;15.00;;;;;;;-1.24;100.00;95955.98;108577;1278;22537;-80
2023/01/20 01:53:18;;;;;;;24.40;14.20;;;;;;;-1.22;100.00;95957.27;108788;1273;72742;-80
2023/01/20 01:55:56;;;;;;;22.80;15.00;;;;;;;-1.21;100.00;95961.30;108967;1273;22562;-79
2023/01/20 01:58:31;;;;;;;22.50;13.40;;;;;;;-1.19;100.00;95962.71;108958;1274;22535;-80
2023/01/20 02:01:02;;;;;;;24.10;13.30;;;;;;;-1.15;100.00;95972.17;108943;1268;24250;-80
2023/01/20 02:03:40;;;;;;;23.60;14.70;;;;;;;-1.12;100.00;95982.67;108931;1274;22527;-81
2023/01/20 02:06:11;;;;;;;23.20;14.80;;;;;;;-1.10;100.00;95987.25;108958;1274;23978;-80
2023/01/20 02:08:43;;;;;;;21.40;14.90;;;;;;;-1.08;100.00;95979.55;108982;1273;22523;-80
2023/01/20 02:11:17;;;;;;;19.70;12.60;;;;;;;-1.07;100.00;95985.24;108968;1273;22601;-80
2023/01/20 02:13:48;;;;;;;21.40;14.50;;;;;;;-1.11;99.92;95989.14;108978;1274;22527;-80
2023/01/20 02:16:35;;;;;;;18.80;12.00;;;;;;;-1.14;99.83;95982.21;108952;1261;24312;-80
2023/01/20 02:19:32;;;;;;;18.80;11.90;;;;;;;-1.12;99.81;95986.52;108650;1274;22540;-79
2023/01/20 02:22:21;;;;;;;21.40;14.20;;;;;;;-1.13;99.68;95987.69;108620;1274;25138;-79
2023/01/20 02:25:16;;;;;;;21.00;12.70;;;;;;;-1.20;99.56;95991.45;108603;1273;24219;-81
2023/01/20 02:28:18;;;;;;;25.10;15.20;;;;;;;-1.25;99.79;95989.56;109039;1267;22548;-82
2023/01/20 02:31:17;;;;;;;21.20;14.40;;;;;;;-1.25;99.84;95990.39;108954;1274;22542;-81
2023/01/20 02:33:53;;;;;;;20.90;12.50;;;;;;;-1.18;99.83;95988.63;108938;1271;24412;-81
2023/01/20 02:36:32;;;;;;;23.00;15.80;;;;;;;-1.16;100.00;95985.91;108967;1274;22523;-82
2023/01/20 02:39:09;;;;;;;26.50;16.10;;;;;;;-1.21;99.94;95982.23;108993;1267;25507;-81
2023/01/20 02:41:52;;;;;;;25.40;16.20;;;;;;;-1.27;99.88;95982.70;108869;1273;22534;-81
2023/01/20 02:44:31;;;;;;;26.30;16.80;;;;;;;-1.28;99.94;95984.97;108944;1274;23062;-81
2023/01/20 02:47:09;;;;;;;24.80;14.60;;;;;;;-1.26;100.00;95988.97;108971;1271;25251;-82
2023/01/20 02:49:46;;;;;;;28.00;17.30;;;;;;;-1.24;100.00;95987.87;108916;1274;22796;-81
2023/01/20 02:52:22;;;;;;;25.70;17.70;;;;;;;-1.25;99.96;95991.68;108980;1274;24226;-82
2023/01/20 02:54:56;;;;;;;22.70;13.90;;;;;;;-1.23;99.99;95994.64;109005;1271;22538;-81
2023/01/20 02:57:35;;;;;;;26.50;16.00;;;;;;;-1.23;99.99;95994.49;109127;1267;22570;-82
2023/01/20 03:00:17;;;;;;;25.80;17.10;;;;;;;-1.31;99.98;95998.63;109084;1267;25258;-81
2023/01/20 03:02:55;;;;;;;26.20;17.80;;;;;;;-1.38;100.00;95994.88;109037;1268;22610;-81
2023/01/20 03:05:34;;;;;;;25.30;17.40;;;;;;;-1.36;100.00;95996.38;109038;1267;22523;-81
2023/01/20 03:08:09;;;;;;;28.20;18.40;;;;;;;-1.33;100.00;95987.57;109079;1271;24386;-82
2023/01/20 03:10:42;;;;;;;26.70;17.80;;;;;;;-1.28;100.00;95986.58;109029;1273;22585;-81
2023/01/20 03:13:20;;;;;;;26.70;17.00;;;;;;;-1.27;100.00;95984.83;109082;1274;22580;-81
2023/01/20 03:16:01;;;;;;;24.50;16.50;;;;;;;-1.27;100.00;95988.30;109052;1274;23135;-79
2023/01/20 03:18:33;;;;;;;24.20;16.20;;;;;;;-1.28;100.00;95992.21;108726;1267;22541;-79
2023/01/20 03:21:07;;;;;;;28.30;17.30;;;;;;;-1.30;100.00;95996.52;108760;1267;26566;-81
2023/01/20 03:23:45;;;;;;;28.00;17.60;;;;;;;-1.29;100.00;95989.79;109008;1268;22655;-83
2023/01/20 03:26:19;;;;;;;25.30;17.00;;;;;;;-1.31;100.00;95992.45;108994;1268;22545;-81
2023/01/20 03:28:53;;;;;;;37.60;20.00;;;;;;;-1.35;100.00;95989.91;109067;1268;22535;-82
2023/01/20 03:31:31;;;;;;;34.70;20.50;;;;;;;-1.33;100.00;95988.81;109083;1268;22715;-81
2023/01/20 03:34:09;;;;;;;39.90;22.60;;;;;;;-1.32;100.00;95987.48;109090;1267;23191;-82
2023/01/20 03:36:42;;;;;;;36.70;21.70;;;;;;;-1.34;100.00;95991.41;109105;1268;22565;-81
2023/01/20 03:39:16;;;;;;;35.50;19.90;;;;;;;-1.33;100.00;95990.52;109085;1267;22645;-80
2023/01/20 03:41:58;;;;;;;36.80;20.50;;;;;;;-1.31;100.00;95986.14;109121;1267;22944;-82
2023/01/20 03:44:43;;;;;;;33.60;20.40;;;;;;;-1.30;100.00;95988.69;109075;1267;22541;-81
2023/01/20 03:47:20;;;;;;;30.50;18.40;;;;;;;-1.28;100.00;95990.02;109010;1271;22554;-81
2023/01/20 03:49:56;;;;;;;28.60;18.80;;;;;;;-1.29;100.00;95997.19;108981;1267;24387;-81
2023/01/20 03:52:33;;;;;;;27.60;18.50;;;;;;;-1.29;100.00;96000.66;108997;1268;22523;-80
2023/01/20 03:55:11;;;;;;;28.80;17.70;;;;;;;-1.30;100.00;96004.44;109012;1267;22544;-81
2023/01/20 03:57:48;;;;;;;26.20;18.30;;;;;;;-1.28;100.00;96004.58;109010;1267;26311;-80
2023/01/20 04:00:25;;;;;;;28.20;18.10;;;;;;;-1.26;100.00;96011.34;109067;1267;22541;-81
2023/01/20 04:02:59;;;;;;;31.00;19.00;;;;;;;-1.24;100.00;96008.04;109073;1271;22523;-81
2023/01/20 04:05:33;;;;;;;30.30;18.70;;;;;;;-1.22;100.00;96012.32;108969;1271;22527;-81
2023/01/20 04:08:09;;;;;;;26.20;17.80;;;;;;;-1.18;100.00;96009.75;109114;1271;24252;-81
2023/01/20 04:10:43;;;;;;;27.70;18.00;;;;;;;-1.21;100.00;96013.32;109121;1268;22588;-81
2023/01/20 04:13:17;;;;;;;29.20;19.40;;;;;;;-1.27;100.00;96017.41;109044;1267;22545;-81
2023/01/20 04:15:48;;;;;;;29.70;18.70;;;;;;;-1.26;100.00;96019.25;108988;1267;22583;-81
2023/01/20 04:18:26;;;;;;;29.80;19.00;;;;;;;-1.26;100.00;96019.85;109020;1267;25266;-80
2023/01/20 04:21:03;;;;;;;30.10;18.50;;;;;;;-1.24;100.00;96025.27;108999;1268;23817;-80
2023/01/20 04:23:37;;;;;;;28.80;18.90;;;;;;;-1.25;100.00;96023.32;109085;1271;22627;-80
2023/01/20 04:26:11;;;;;;;26.90;18.30;;;;;;;-1.22;100.00;96026.61;109103;1267;22555;-81
2023/01/20 04:28:44;;;;;;;27.50;17.50;;;;;;;-1.16;100.00;96034.80;108974;1267;22544;-80
2023/01/20 04:31:15;;;;;;;29.70;17.80;;;;;;;-1.13;100.00;96033.92;109052;1267;22568;-80
2023/01/20 04:33:47;;;;;;;27.70;18.50;;;;;;;-1.12;100.00;96034.46;108967;1271;29642;-80
2023/01/20 04:36:19;;;;;;;35.30;22.80;;;;;;;-1.20;100.00;96041.90;108992;1271;22577;-80
2023/01/20 04:38:50;;;;;;;33.90;22.10;;;;;;;-1.29;100.00;96045.27;108985;1266;22610;-80
2023/01/20 04:41:22;;;;;;;32.80;21.50;;;;;;;-1.30;100.00;96053.93;109064;1268;22543;-80
2023/01/20 04:43:53;;;;;;;36.60;22.30;;;;;;;-1.26;100.00;96056.46;109065;1268;22577;-80
2023/01/20 04:46:26;;;;;;;34.00;21.50;;;;;;;-1.22;100.00;96059.48;109121;1267;22523;-80
2023/01/20 04:48:57;;;;;;;32.30;22.20;;;;;;;-1.17;100.00;96064.03;109119;1268;22556;-81
2023/01/20 04:51:29;;;;;;;35.00;22.40;;;;;;;-1.14;100.00;96067.77;109020;1267;25438;-80
2023/01/20 04:54:07;;;;;;;34.20;21.50;;;;;;;-1.12;100.00;96071.55;109025;1271;29053;-80
2023/01/20 04:56:38;;;;;;;28.90;19.20;;;;;;;-1.11;100.00;96069.98;109003;1267;22957;-80
2023/01/20 04:59:10;;;;;;;29.70;20.00;;;;;;;-1.09;100.00;96070.75;108973;1271;22779;-80
2023/01/20 05:01:41;;;;;;;30.10;19.20;;;;;;;-1.07;100.00;96069.14;108971;1267;22567;-80
2023/01/20 05:04:12;;;;;;;28.40;18.60;;;;;;;-1.05;100.00;96068.22;108979;1267;24001;-80
2023/01/20 05:06:43;;;;;;;24.20;17.60;;;;;;;-1.07;100.00;96069.25;109121;1267;22534;-80
2023/01/20 05:09:17;;;;;;;27.90;18.40;;;;;;;-1.12;100.00;96070.77;109031;1267;22548;-80
2023/01/20 05:11:48;;;;;;;27.70;18.80;;;;;;;-1.13;100.00;96074.23;109016;1268;23218;-80
2023/01/20 05:14:19;;;;;;;26.60;17.70;;;;;;;-1.13;100.00;96073.90;108995;1271;24199;-81
2023/01/20 05:16:50;;;;;;;29.90;19.20;;;;;;;-1.13;100.00;96071.18;109003;1274;22526;-80
2023/01/20 05:19:22;;;;;;;31.00;19.70;;;;;;;-1.12;100.00;96074.22;109004;1271;22527;-80
2023/01/20 05:21:53;;;;;;;27.80;18.00;;;;;;;-1.09;100.00;96079.00;109025;1274;22527;-81
2023/01/20 05:24:25;;;;;;;30.20;19.70;;;;;;;-1.07;100.00;96078.73;108994;1274;22539;-80
2023/01/20 05:26:59;;;;;;;30.10;19.50;;;;;;;-1.05;100.00;96079.25;109013;1267;22534;-80
2023/01/20 05:29:34;;;;;;;33.10;21.50;;;;;;;-1.09;100.00;96081.27;108933;1274;23001;-81
2023/01/20 05:32:07;;;;;;;30.30;20.10;;;;;;;-1.19;100.00;96085.61;108810;1275;22573;-80
2023/01/20 05:34:38;;;;;;;31.40;20.50;;;;;;;-1.24;100.00;96089.84;108787;1275;22532;-80
2023/01/20 05:37:28;;;;;;;36.90;24.50;;;;;;;-1.22;100.00;96094.06;108675;1270;24206;-79
2023/01/20 05:39:59;;;;;;;34.30;21.20;;;;;;;-1.18;100.00;96095.73;108684;1277;22528;-79
2023/01/20 05:42:31;;;;;;;34.90;20.80;;;;;;;-1.13;100.00;96099.61;108794;1271;22541;-80
2023/01/20 05:45:02;;;;;;;32.10;20.90;;;;;;;-1.10;100.00;96101.85;108781;1271;24446;-81
2023/01/20 05:47:33;;;;;;;34.80;22.60;;;;;;;-1.07;100.00;96104.98;108849;1275;22560;-82
2023/01/20 05:50:05;;;;;;;36.50;22.40;;;;;;;-1.06;100.00;96108.73;108892;1270;22550;-80
2023/01/20 05:52:37;;;;;;;32.80;20.80;;;;;;;-1.06;100.00;96110.21;108813;1276;22931;-81
2023/01/20 05:55:09;;;;;;;31.80;21.10;;;;;;;-1.14;100.00;96107.90;108771;1276;22586;-80
2023/01/20 05:57:41;;;;;;;39.00;24.30;;;;;;;-1.20;100.00;96106.80;108804;1276;24255;-81
2023/01/20 06:00:14;;;;;;;43.00;27.00;;;;;;;-1.23;100.00;96107.14;108814;1276;22576;-81
2023/01/20 06:02:45;;;;;;;37.30;25.40;;;;;;;-1.24;100.00;96109.92;108830;1271;22593;-81
2023/01/20 06:05:18;;;;;;;41.70;26.40;;;;;;;-1.24;100.00;96108.41;108723;1276;22527;-81
2023/01/20 06:07:54;;;;;;;43.50;27.40;;;;;;;-1.24;100.00;96108.05;108849;1273;22714;-81
2023/01/20 06:10:26;;;;;;;43.00;27.90;;;;;;;-1.25;100.00;96109.23;108798;1273;22603;-81
2023/01/20 06:12:58;;;;;;;47.90;31.60;;;;;;;-1.28;100.00;96112.98;108763;1276;24598;-81
2023/01/20 06:15:29;;;;;;;40.20;27.90;;;;;;;-1.30;100.00;96115.66;108740;1276;22526;-81
2023/01/20 06:18:00;;;;;;;42.30;28.30;;;;;;;-1.32;100.00;96116.80;108737;1270;22573;-80
2023/01/20 06:20:33;;;;;;;39.10;25.50;;;;;;;-1.32;100.00;96121.27;108934;1275;24261;-81
2023/01/20 06:23:05;;;;;;;35.40;22.60;;;;;;;-1.30;100.00;96121.21;108833;1276;22552;-81
2023/01/20 06:25:36;;;;;;;39.50;25.40;;;;;;;-1.33;100.00;96122.65;108827;1270;22629;-80
2023/01/20 06:28:07;;;;;;;36.00;23.60;;;;;;;-1.35;100.00;96126.08;108844;1276;22654;-82
2023/01/20 06:30:42;;;;;;;40.10;25.30;;;;;;;-1.39;100.00;96130.39;108849;1274;22559;-80
2023/01/20 06:33:13;;;;;;;40.30;26.00;;;;;;;-1.44;100.00;96129.63;108987;1271;22534;-80
2023/01/20 06:35:44;;;;;;;41.30;26.40;;;;;;;-1.51;100.00;96129.14;108973;1275;22559;-81
2023/01/20 06:38:17;;;;;;;42.10;25.70;;;;;;;-1.56;100.00;96136.98;108989;1274;23068;-82
2023/01/20 06:40:48;;;;;;;42.80;26.20;;;;;;;-1.61;100.00;96140.41;109006;1274;22899;-82
2023/01/20 06:43:19;;;;;;;45.00;28.90;;;;;;;-1.63;100.00;96140.56;108897;1269;99891;-81
2023/01/20 06:45:50;;;;;;;38.60;24.20;;;;;;;-1.64;100.00;96143.30;108967;1274;22544;-81
2023/01/20 06:48:23;;;;;;;43.00;25.70;;;;;;;-1.63;100.00;96143.72;109021;1273;22525;-80
2023/01/20 06:50:54;;;;;;;39.80;26.10;;;;;;;-1.64;100.00;96153.92;109011;1274;22584;-80
2023/01/20 06:53:25;;;;;;;44.40;26.90;;;;;;;-1.68;100.00;96153.03;108936;1271;48343;-81
2023/01/20 06:55:58;;;;;;;44.80;25.80;;;;;;;-1.70;100.00;96154.27;108957;1271;23279;-81
2023/01/20 06:58:31;;;;;;;47.30;30.00;;;;;;;-1.71;100.00;96156.16;108973;1274;22523;-81
2023/01/20 07:01:08;;;;;;;50.20;30.90;;;;;;;-1.70;100.00;96152.68;109023;1271;22560;-81
2023/01/20 07:03:41;;;;;;;51.60;31.90;;;;;;;-1.68;100.00;96152.52;108937;1273;44427;-81
2023/01/20 07:06:20;;;;;;;60.50;38.10;;;;;;;-1.63;100.00;96152.11;108964;1273;22522;-81
2023/01/20 07:08:51;;;;;;;51.90;33.20;;;;;;;-1.58;100.00;96151.15;109015;1268;22583;-81
2023/01/20 07:11:22;;;;;;;48.90;31.20;;;;;;;-1.55;100.00;96152.02;108932;1275;24238;-81
2023/01/20 07:13:53;;;;;;;52.50;31.40;;;;;;;-1.54;100.00;96160.88;108937;1274;41154;-81
2023/01/20 07:16:25;;;;;;;39.30;25.80;;;;;;;-1.52;100.00;96158.14;108953;1268;22528;-81
2023/01/20 07:18:59;;;;;;;42.20;27.50;;;;;;;-1.51;100.00;96156.05;108956;1274;22530;-80
2023/01/20 07:21:32;;;;;;;49.10;29.20;;;;;;;-1.53;100.00;96158.91;109025;1275;24411;-81
2023/01/20 07:24:05;;;;;;;51.30;31.20;;;;;;;-1.53;100.00;96158.31;108934;1272;70797;-81
2023/01/20 07:26:36;;;;;;;48.80;29.80;;;;;;;-1.49;100.00;96159.31;108965;1274;22526;-80
2023/01/20 07:29:10;;;;;;;46.20;28.00;;;;;;;-1.46;100.00;96157.65;108938;1275;24277;-80
2023/01/20 07:31:41;;;;;;;44.60;29.40;;;;;;;-1.46;100.00;96156.24;109017;1266;22547;-79
2023/01/20 07:34:12;;;;;;;45.70;28.80;;;;;;;-1.46;100.00;96156.05;108965;1273;25201;-79
2023/01/20 07:36:43;;;;;;;47.30;28.80;;;;;;;-1.43;100.00;96156.13;108398;1271;58260;-79
2023/01/20 07:39:18;;;;;;;45.50;28.70;;;;;;;-1.43;100.00;96160.77;108605;1273;25425;-78
2023/01/20 07:41:50;;;;;;;53.30;30.50;;;;;;;-1.43;100.00;96167.85;108996;1274;22692;-80
2023/01/20 07:44:21;;;;;;;46.00;29.10;;;;;;;-1.39;100.00;96167.91;108978;1274;24359;-80
2023/01/20 07:46:53;;;;;;;42.70;26.10;;;;;;;-1.34;100.00;96171.34;108961;1271;47497;-80
2023/01/20 07:49:24;;;;;;;47.10;29.60;;;;;;;-1.33;100.00;96170.64;109123;1274;22577;-80
2023/01/20 07:51:56;;;;;;;50.00;30.10;;;;;;;-1.32;100.00;96174.67;108976;1274;22543;-80
2023/01/20 07:54:29;;;;;;;46.10;28.40;;;;;;;-1.33;100.00;96178.61;109029;1268;22531;-80
2023/01/20 07:57:00;;;;;;;46.60;27.90;;;;;;;-1.31;100.00;96180.63;108899;1274;99489;-80
2023/01/20 07:59:32;;;;;;;54.70;32.80;;;;;;;-1.31;100.00;96184.64;108988;1267;24224;-80
2023/01/20 08:02:03;;;;;;;48.80;30.50;;;;;;;-1.35;100.00;96188.83;109001;1274;22552;-80
2023/01/20 08:04:34;;;;;;;50.10;30.90;;;;;;;-1.41;100.00;96190.88;108966;1267;22776;-81
2023/01/20 08:07:08;;;;;;;50.30;31.20;;;;;;;-1.43;100.00;96192.73;109004;1267;64371;-81
2023/01/20 08:09:40;;;;;;;46.90;27.90;;;;;;;-1.45;100.00;96195.55;109003;1268;22708;-80
2023/01/20 08:12:11;;;;;;;49.80;30.90;;;;;;;-1.47;100.00;96193.77;108883;1274;24276;-83
2023/01/20 08:14:42;;;;;;;46.80;26.10;;;;;;;-1.49;100.00;96198.91;109025;1267;22608;-79
2023/01/20 08:17:13;;;;;;;51.50;28.90;;;;;;;-1.48;100.00;96198.94;108720;1269;40557;-81
2023/01/20 08:19:45;;;;;;;44.50;26.50;;;;;;;-1.45;100.00;96197.67;109131;1274;25351;-80
2023/01/20 08:22:16;;;;;;;45.80;27.90;;;;;;;-1.40;100.00;96200.11;109054;1271;22566;-81
2023/01/20 08:24:47;;;;;;;47.80;27.80;;;;;;;-1.36;100.00;96204.68;109067;1274;22530;-78
2023/01/20 08:27:19;;;;;;;49.90;29.40;;;;;;;-1.33;100.00;96205.29;109018;1271;59120;-80
2023/01/20 08:29:50;;;;;;;49.80;28.70;;;;;;;-1.29;100.00;96207.85;109075;1267;22571;-80
2023/01/20 08:32:21;;;;;;;49.40;29.00;;;;;;;-1.26;100.00;96212.48;109135;1268;22564;-80
2023/01/20 08:34:53;;;;;;;47.10;30.10;;;;;;;-1.20;100.00;96210.54;109070;1267;23796;-80
2023/01/20 08:37:25;;;;;;;48.30;27.60;;;;;;;-1.16;100.00;96213.90;109052;1269;27308;-80
2023/01/20 08:39:57;;;;;;;45.40;27.30;;;;;;;-1.16;100.00;96215.83;109093;1274;22542;-80
2023/01/20 08:42:29;;;;;;;42.10;25.10;;;;;;;-1.14;100.00;96219.01;109062;1274;22544;-79
2023/01/20 08:45:00;;;;;;;49.30;27.50;;;;;;;-1.15;100.00;96214.61;109095;1270;22527;-80
2023/01/20 08:47:35;;;;;;;52.20;31.70;;;;;;;-1.14;100.00;96217.60;109022;1274;64910;-80
2023/01/20 08:50:09;;;;;;;50.10;28.90;;;;;;;-1.11;100.00;96216.05;109178;1267;22519;-80
2023/01/20 08:52:40;;;;;;;45.80;28.10;;;;;;;-1.11;100.00;96215.17;108997;1264;22557;-76
2023/01/20 08:55:12;;;;;;;49.20;28.70;;;;;;;-1.12;100.00;96214.60;108973;1271;22566;-79
2023/01/20 08:57:44;;;;;;;55.30;33.20;;;;;;;-1.14;100.00;96212.88;109067;1267;24233;-78
2023/01/20 09:00:18;;;;;;;46.50;28.30;;;;;;;-1.11;100.00;96212.98;109071;1274;22523;-80
2023/01/20 09:02:50;;;;;;;47.40;28.90;;;;;;;-1.12;100.00;96211.96;109031;1267;22702;-78
2023/01/20 09:05:26;;;;;;;50.00;29.50;;;;;;;-1.16;100.00;96218.39;109160;1271;22524;-84
2023/01/20 09:07:58;;;;;;;43.80;26.30;;;;;;;-1.13;100.00;96226.48;107181;1267;2502984;-82
2023/01/20 09:10:31;;;;;;;48.00;27.60;;;;;;;-1.08;100.00;96228.93;109123;1271;22551;-84
2023/01/20 09:13:05;;;;;;;49.00;27.90;;;;;;;-1.04;100.00;96231.49;109049;1274;22575;-81
2023/01/20 09:15:36;;;;;;;51.40;27.60;;;;;;;-1.04;100.00;96230.52;108835;1271;22531;-84
2023/01/20 09:18:08;;;;;;;50.30;27.80;;;;;;;-1.00;100.00;96230.01;109073;1271;23188;-81
2023/01/20 09:20:39;;;;;;;52.90;31.70;;;;;;;-0.95;100.00;96236.58;109100;1273;22594;-82
2023/01/20 09:23:14;;;;;;;54.20;30.90;;;;;;;-0.92;100.00;96235.41;109072;1274;23319;-81
2023/01/20 09:25:46;;;;;;;52.80;30.20;;;;;;;-0.88;100.00;96230.53;109051;1274;22605;-82
2023/01/20 09:28:19;;;;;;;57.20;30.50;;;;;;;-0.83;100.00;96235.98;108961;1269;56733;-81
2023/01/20 09:30:57;;;;;;;53.60;29.70;;;;;;;-0.81;100.00;96232.24;109130;1268;22464;-83
2023/01/20 09:33:30;;;;;;;57.10;31.70;;;;;;;-0.77;100.00;96227.19;109031;1267;22572;-82
2023/01/20 09:36:02;;;;;;;50.80;28.00;;;;;;;-0.73;100.00;96219.23;109033;1274;25638;-82
2023/01/20 09:44:42;;;;;;;53.10;27.40;;;;;;;-0.61;100.00;96211.02;109031;1268;84871;-81
2023/01/20 09:47:30;;;;;;;48.00;27.40;;;;;;;-0.54;100.00;96203.71;109110;1274;22554;-81
2023/01/20 09:53:31;;;;;;;52.10;24.80;;;;;;;-0.38;100.00;96202.17;108568;1273;22541;-79
2023/01/20 09:56:09;;;;;;;48.40;25.90;;;;;;;-0.40;100.00;96199.59;108398;1268;97098;-80
2023/01/20 09:58:47;;;;;;;49.30;25.70;;;;;;;-0.37;100.00;96194.07;109023;1271;22967;-79
2023/01/20 10:01:29;;;;;;;53.30;28.00;;;;;;;-0.38;100.00;96190.52;109047;1271;24398;-80
2023/01/20 10:04:07;;;;;;;49.40;26.00;;;;;;;-0.37;100.00;96195.27;108948;1271;22524;-80
2023/01/20 10:06:42;;;;;;;53.90;26.60;;;;;;;-0.38;100.00;96195.52;108588;1271;22584;-84
2023/01/20 10:09:29;;;;;;;54.80;27.00;;;;;;;-0.40;100.00;96197.43;109108;1267;22677;-81
2023/01/20 10:12:12;;;;;;;47.70;25.80;;;;;;;-0.45;100.00;96199.63;109072;1274;22557;-82
2023/01/20 10:14:49;;;;;;;51.30;26.20;;;;;;;-0.45;100.00;96200.99;109045;1271;80091;-81
2023/01/20 10:17:28;;;;;;;53.70;26.30;;;;;;;-0.43;100.00;96199.17;109097;1274;22526;-80
2023/01/20 10:20:05;;;;;;;52.00;28.00;;;;;;;-0.39;100.00;96195.17;109039;1275;22533;-82
2023/01/20 10:22:42;;;;;;;50.80;26.70;;;;;;;-0.35;100.00;96201.36;109040;1270;22583;-78
2023/01/20 10:25:21;;;;;;;46.00;24.70;;;;;;;-0.33;100.00;96203.50;108873;1271;22537;-82
2023/01/20 10:27:58;;;;;;;48.60;25.00;;;;;;;-0.35;100.00;96201.93;109070;1271;23294;-82
2023/01/20 10:30:35;;;;;;;48.00;25.00;;;;;;;-0.34;100.00;96202.64;109105;1270;22529;-82
2023/01/20 10:33:11;;;;;;;46.70;24.80;;;;;;;-0.34;100.00;96203.00;108769;1274;22540;-78
2023/01/20 10:35:47;;;;;;;46.50;25.50;;;;;;;-0.38;100.00;96199.73;109015;1267;62621;-78
2023/01/20 10:38:26;;;;;;;51.10;28.20;;;;;;;-0.40;100.00;96199.58;109065;1268;24191;-77
2023/01/20 10:41:03;;;;;;;48.70;26.00;;;;;;;-0.37;100.00;96202.95;108755;1275;22712;-77
2023/01/20 10:43:35;;;;;;;48.60;26.00;;;;;;;-0.36;100.00;96197.97;108804;1268;22529;-83
2023/01/20 10:46:22;;;;;;;48.30;25.30;;;;;;;-0.35;100.00;96195.23;108801;1273;22561;-82
2023/01/20 10:49:17;;;;;;;47.40;24.60;;;;;;;-0.35;100.00;96195.13;109046;1267;22530;-78
2023/01/20 10:52:00;;;;;;;43.10;23.40;;;;;;;-0.39;100.00;96188.88;109045;1267;22528;-79
2023/01/20 10:54:42;;;;;;;44.10;24.00;;;;;;;-0.39;100.00;96190.12;109046;1275;25917;-78
2023/01/20 10:57:17;;;;;;;45.40;23.90;;;;;;;-0.39;100.00;96183.83;109103;1274;22528;-77
2023/01/20 10:59:51;;;;;;;47.50;22.40;;;;;;;-0.39;100.00;96179.77;109047;1275;22537;-79
2023/01/20 11:02:25;;;;;;;52.20;27.00;;;;;;;-0.43;100.00;96181.64;109101;1273;22536;-78
2023/01/20 11:05:00;;;;;;;52.50;27.10;;;;;;;-0.43;100.00;96185.52;109042;1271;25304;-78
2023/01/20 11:07:34;;;;;;;53.10;27.20;;;;;;;-0.46;100.00;96185.79;109083;1275;22652;-79
2023/01/20 11:10:18;;;;;;;53.00;26.20;;;;;;;-0.49;100.00;96191.45;109054;1267;22692;-78
2023/01/20 11:12:53;;;;;;;48.70;23.80;;;;;;;-0.48;100.00;96198.60;109113;1271;24252;-77
2023/01/20 11:15:28;;;;;;;52.00;27.40;;;;;;;-0.51;100.00;96194.67;109028;1274;22637;-77
2023/01/20 11:18:25;;;;;;;49.80;27.00;;;;;;;-0.48;100.00;96196.00;109076;1268;22562;-78
2023/01/20 11:21:00;;;;;;;51.00;26.80;;;;;;;-0.44;100.00;96182.92;109092;1271;24281;-78
2023/01/20 11:23:39;;;;;;;51.60;26.70;;;;;;;-0.42;100.00;96171.25;109155;1267;22744;-77
2023/01/20 11:26:20;;;;;;;49.00;23.00;;;;;;;-0.41;100.00;96164.35;109035;1275;24204;-77
2023/01/20 11:28:54;;;;;;;52.10;24.40;;;;;;;-0.42;100.00;96161.95;109047;1263;22533;-79
2023/01/20 11:31:39;;;;;;;60.10;25.60;;;;;;;-0.46;100.00;96158.98;109123;1268;22534;-78
2023/01/20 11:34:28;;;;;;;56.30;23.20;;;;;;;-0.50;100.00;96154.92;108946;1264;129991;-79
2023/01/20 11:37:18;;;;;;;49.90;23.60;;;;;;;-0.53;100.00;96156.36;109089;1275;23283;-79
2023/01/20 11:40:02;;;;;;;48.10;25.10;;;;;;;-0.52;100.00;96152.95;109060;1275;22669;-78
2023/01/20 11:42:44;;;;;;;50.50;24.40;;;;;;;-0.52;100.00;96142.48;109100;1275;22541;-77
2023/01/20 11:45:44;;;;;;;55.90;25.30;;;;;;;-0.55;100.00;96135.33;108695;1274;22907;-79